Time;durP1;ratioP1;P1;durP2;ratioP2;P2;SDS_P1;SDS_P2;PMS_P1;PMS_P2;Temp;Humidity;BMP_temperature;BMP_pressure;BME280_temperature;BME280_humidity;BME280_pressure;Samples;Min_cycle;Max_cycle;Signal;HPM_P1;HPM_P2
2022/06/17 00:01:30;;;;;;;9.75;6.47;;;16.60;99.90;;;;;;4823761;29;20092;-60
2022/06/17 00:03:56;;;;;;;10.07;6.80;;;16.60;99.90;;;;;;4824042;29;20130;-61
2022/06/17 00:06:24;;;;;;;10.98;6.65;;;16.60;99.90;;;;;;4823712;29;20133;-59
2022/06/17 00:08:52;;;;;;;7.93;6.43;;;16.50;99.90;;;;;;4824026;29;20054;-61
2022/06/17 00:11:41;;;;;;;14.20;6.65;;;16.50;99.90;;;;;;4807434;29;20061;-62
2022/06/17 00:14:21;;;;;;;8.40;6.68;;;16.60;99.90;;;;;;4822486;29;20450;-67
2022/06/17 00:16:47;;;;;;;9.10;6.47;;;16.50;99.90;;;;;;4823607;29;20524;-61
2022/06/17 00:19:13;;;;;;;8.60;6.47;;;16.50;99.90;;;;;;4823323;29;20137;-66
2022/06/17 00:21:43;;;;;;;10.48;7.25;;;16.60;99.90;;;;;;4823721;29;20053;-60
2022/06/17 00:24:20;;;;;;;9.70;7.22;;;16.50;99.90;;;;;;4823389;29;20390;-65
2022/06/17 00:26:46;;;;;;;9.68;7.03;;;16.50;99.90;;;;;;4823208;29;20240;-59
2022/06/17 00:29:14;;;;;;;11.13;7.10;;;16.50;99.90;;;;;;4823352;29;20350;-60
2022/06/17 00:31:40;;;;;;;11.73;7.78;;;16.50;99.90;;;;;;4823506;29;20050;-60
2022/06/17 00:34:06;;;;;;;12.73;7.50;;;16.40;99.90;;;;;;4792248;29;20066;-59
2022/06/17 00:36:33;;;;;;;10.32;8.07;;;16.40;99.90;;;;;;4823089;29;20047;-60
2022/06/17 00:38:59;;;;;;;13.10;8.45;;;16.40;99.90;;;;;;4823487;29;20053;-61
2022/06/17 00:41:24;;;;;;;11.40;8.60;;;16.40;99.90;;;;;;4823116;29;20050;-60
2022/06/17 00:43:50;;;;;;;10.90;8.55;;;16.50;99.90;;;;;;4823312;29;20057;-60
2022/06/17 00:46:27;;;;;;;10.80;8.77;;;16.40;99.90;;;;;;4821707;29;20062;-60
2022/06/17 00:49:11;;;;;;;11.40;9.05;;;16.40;99.90;;;;;;4823448;29;20050;-60
2022/06/17 00:51:47;;;;;;;9.90;8.80;;;16.50;99.90;;;;;;4823401;29;20050;-61
2022/06/17 00:54:24;;;;;;;10.38;8.60;;;16.40;99.90;;;;;;4806446;29;20096;-63
2022/06/17 00:56:50;;;;;;;11.80;8.38;;;16.40;99.90;;;;;;4823307;29;20137;-60
2022/06/17 00:59:16;;;;;;;11.32;8.27;;;16.40;99.90;;;;;;4823009;29;20496;-60
2022/06/17 01:01:47;;;;;;;12.55;8.60;;;16.40;99.90;;;;;;4823064;29;20056;-60
2022/06/17 01:04:18;;;;;;;13.90;8.70;;;16.40;99.90;;;;;;4822815;29;20409;-66
2022/06/17 01:07:08;;;;;;;10.73;7.68;;;16.30;99.90;;;;;;4823000;29;20054;-59
2022/06/17 01:12:31;;;;;;;10.75;8.48;;;16.40;99.90;;;;;;4808783;29;20065;-60
2022/06/17 01:14:58;;;;;;;12.65;8.63;;;16.30;99.90;;;;;;4823101;29;20393;-59
2022/06/17 01:17:25;;;;;;;11.55;9.02;;;16.30;99.90;;;;;;4791113;29;20068;-60
2022/06/17 01:19:57;;;;;;;11.75;8.73;;;16.30;99.90;;;;;;4806450;29;20054;-61
2022/06/17 01:22:38;;;;;;;13.05;8.65;;;16.30;99.90;;;;;;4822225;29;20085;-60
2022/06/17 01:25:12;;;;;;;11.35;9.07;;;16.20;99.90;;;;;;4806239;29;20073;-59
2022/06/17 01:27:47;;;;;;;9.88;8.60;;;16.20;99.90;;;;;;4822535;29;20114;-60
2022/06/17 01:30:26;;;;;;;10.27;8.25;;;16.20;99.90;;;;;;4822894;29;20081;-61
2022/06/17 01:32:56;;;;;;;12.13;8.93;;;16.20;99.90;;;;;;4821689;29;20199;-60
2022/06/17 01:35:26;;;;;;;11.93;8.50;;;16.20;99.90;;;;;;4822039;29;20493;-60
2022/06/17 01:37:52;;;;;;;12.65;8.70;;;16.20;99.90;;;;;;4822513;29;20472;-60
2022/06/17 01:40:20;;;;;;;10.07;8.15;;;16.20;99.90;;;;;;4822021;29;20053;-67
2022/06/17 01:42:47;;;;;;;9.15;7.85;;;16.10;99.90;;;;;;4822581;29;20137;-61
2022/06/17 01:45:13;;;;;;;10.07;8.07;;;16.10;99.90;;;;;;4806240;29;20057;-61
2022/06/17 01:47:42;;;;;;;11.38;8.85;;;16.10;99.90;;;;;;4822302;29;20077;-60
2022/06/17 01:50:16;;;;;;;11.40;8.30;;;16.10;99.90;;;;;;4822460;29;20060;-61
2022/06/17 01:53:00;;;;;;;9.05;7.78;;;16.10;99.90;;;;;;4805584;29;20109;-62
2022/06/17 01:55:34;;;;;;;11.38;8.38;;;16.00;99.90;;;;;;4822121;29;20133;-62
2022/06/17 01:58:17;;;;;;;;;;;16.00;99.90;;;;;;4822916;29;20463;-59
2022/06/17 02:00:43;;;;;;;10.00;8.05;;;16.00;99.90;;;;;;4822060;29;19924;-60
2022/06/17 02:03:15;;;;;;;11.35;7.88;;;16.00;99.90;;;;;;4806064;29;20115;-60
2022/06/17 02:05:46;;;;;;;10.75;8.35;;;16.00;99.90;;;;;;4821939;29;20049;-60
2022/06/17 02:08:12;;;;;;;10.20;7.72;;;16.00;99.90;;;;;;4806258;29;20410;-60
2022/06/17 02:10:41;;;;;;;10.07;7.55;;;16.00;99.90;;;;;;4822243;29;20137;-60
2022/06/17 02:13:09;;;;;;;11.00;8.05;;;16.00;99.90;;;;;;4822191;29;20050;-61
2022/06/17 02:15:36;;;;;;;10.07;7.85;;;16.00;99.90;;;;;;4821769;29;20057;-63
2022/06/17 02:18:05;;;;;;;13.55;8.27;;;15.90;99.90;;;;;;4821986;29;20054;-60
2022/06/17 02:20:31;;;;;;;9.95;8.27;;;15.90;99.90;;;;;;4821646;29;20066;-60
2022/06/17 02:22:58;;;;;;;9.73;8.40;;;15.90;99.90;;;;;;4822088;29;20513;-62
2022/06/17 02:25:28;;;;;;;11.27;9.23;;;15.90;99.90;;;;;;4821707;29;20465;-64
2022/06/17 02:27:56;;;;;;;12.48;8.10;;;15.90;99.90;;;;;;4821356;29;20050;-60
2022/06/17 02:30:24;;;;;;;10.25;7.78;;;15.80;99.90;;;;;;4822134;29;20047;-62
2022/06/17 02:32:51;;;;;;;12.65;8.40;;;15.80;99.90;;;;;;4822142;29;20050;-60
2022/06/17 02:35:23;;;;;;;10.77;8.00;;;15.80;99.90;;;;;;4821916;29;20085;-60
2022/06/17 02:37:50;;;;;;;12.65;8.57;;;15.80;99.90;;;;;;4821727;29;20073;-61
2022/06/17 02:40:28;;;;;;;11.38;8.70;;;15.70;99.90;;;;;;4821937;29;20046;-60
2022/06/17 02:42:54;;;;;;;11.15;8.68;;;15.70;99.90;;;;;;4806096;29;20443;-60
2022/06/17 02:45:24;;;;;;;12.35;9.15;;;15.60;99.90;;;;;;4821834;29;20051;-59
2022/06/17 02:47:51;;;;;;;11.02;9.00;;;15.60;99.90;;;;;;4821709;29;20145;-59
2022/06/17 02:50:22;;;;;;;13.63;8.32;;;15.60;99.90;;;;;;4824804;29;20053;-60
2022/06/17 02:52:50;;;;;;;12.50;9.57;;;15.60;99.90;;;;;;4824658;29;20413;-61
2022/06/17 02:55:23;;;;;;;12.40;8.90;;;15.60;99.90;;;;;;4824981;29;20058;-62
2022/06/17 02:57:49;;;;;;;11.07;9.25;;;15.60;99.90;;;;;;4824688;29;20062;-60
2022/06/17 03:00:21;;;;;;;12.05;9.00;;;15.60;99.90;;;;;;4808843;29;20050;-65
2022/06/17 03:03:01;;;;;;;12.48;9.52;;;15.50;99.90;;;;;;4824587;29;20133;-60
2022/06/17 03:05:31;;;;;;;12.38;9.52;;;15.50;99.90;;;;;;4808547;29;20465;-67
2022/06/17 03:07:58;;;;;;;14.32;9.50;;;15.50;99.90;;;;;;4824673;29;20545;-60
2022/06/17 03:10:44;;;;;;;14.88;9.77;;;15.40;99.90;;;;;;4824660;29;20218;-60
2022/06/17 03:13:12;;;;;;;11.77;9.15;;;15.40;99.90;;;;;;4824260;29;20062;-61
2022/06/17 03:15:41;;;;;;;13.40;9.10;;;15.40;99.90;;;;;;4824178;29;20118;-60
2022/06/17 03:18:08;;;;;;;12.35;9.55;;;15.40;99.90;;;;;;4824505;29;20054;-60
2022/06/17 03:20:35;;;;;;;11.27;9.05;;;15.30;99.90;;;;;;4823828;29;20051;-60
2022/06/17 03:23:30;;;;;;;13.20;9.68;;;15.40;99.90;;;;;;4824349;29;20054;-60
2022/06/17 03:26:02;;;;;;;12.25;8.60;;;15.30;99.90;;;;;;4816071;29;20193;-60
2022/06/17 03:28:39;;;;;;;11.10;8.68;;;15.40;99.90;;;;;;4824047;29;20057;-61
2022/06/17 03:31:34;;;;;;;11.07;8.52;;;15.40;99.90;;;;;;4808101;29;20509;-60
2022/06/17 03:34:10;;;;;;;11.20;8.88;;;15.50;99.90;;;;;;4824405;29;20054;-60
2022/06/17 03:36:54;;;;;;;11.57;7.63;;;15.50;99.90;;;;;;4824039;29;20050;-61
2022/06/17 03:39:32;;;;;;;14.48;7.47;;;15.60;99.90;;;;;;4808166;29;20087;-62
2022/06/17 03:42:16;;;;;;;11.05;7.43;;;15.60;99.90;;;;;;4824149;29;20053;-60
2022/06/17 03:44:55;;;;;;;10.97;7.57;;;15.70;99.90;;;;;;4823985;29;20133;-60
2022/06/17 03:47:42;;;;;;;9.18;7.40;;;15.80;99.90;;;;;;4824248;29;20279;-60
2022/06/17 03:50:32;;;;;;;9.63;7.35;;;15.80;99.90;;;;;;4824015;29;20061;-63
2022/06/17 03:53:02;;;;;;;8.57;6.75;;;15.80;99.90;;;;;;4806864;29;20054;-60
2022/06/17 03:55:29;;;;;;;8.30;6.88;;;15.80;99.90;;;;;;4824448;29;20450;-60
2022/06/17 03:57:58;;;;;;;10.27;6.97;;;15.80;99.90;;;;;;4823579;29;20148;-60
2022/06/17 04:00:29;;;;;;;10.35;6.60;;;15.80;99.90;;;;;;4806761;29;20133;-62
2022/06/17 04:02:58;;;;;;;11.43;6.97;;;15.80;99.90;;;;;;4823306;29;20618;-61
2022/06/17 04:05:24;;;;;;;12.48;7.18;;;15.80;99.90;;;;;;4823756;29;20047;-61
2022/06/17 04:07:50;;;;;;;11.07;5.88;;;15.90;99.90;;;;;;4823628;29;20137;-62
2022/06/17 04:10:20;;;;;;;8.60;6.40;;;15.90;99.90;;;;;;4823971;29;20141;-61
2022/06/17 04:12:48;;;;;;;9.35;5.63;;;16.00;99.90;;;;;;4823509;29;20050;-61
2022/06/17 04:15:29;;;;;;;7.70;5.47;;;16.10;99.90;;;;;;4823809;29;20054;-60
2022/06/17 04:17:54;;;;;;;9.45;5.80;;;16.10;99.90;;;;;;4807349;29;20095;-63
2022/06/17 04:20:26;;;;;;;8.63;5.25;;;16.20;99.90;;;;;;4824028;29;20046;-61
2022/06/17 04:23:00;;;;;;;7.93;5.28;;;16.30;99.90;;;;;;4822693;29;20062;-60
2022/06/17 04:25:31;;;;;;;8.50;4.82;;;16.30;99.90;;;;;;4823605;29;20058;-60
2022/06/17 04:28:02;;;;;;;6.22;4.75;;;16.40;99.90;;;;;;4823175;29;20300;-60
2022/06/17 04:30:35;;;;;;;9.18;4.30;;;16.40;99.90;;;;;;4792497;29;20057;-60
2022/06/17 04:33:06;;;;;;;7.35;4.22;;;16.50;99.90;;;;;;4823028;29;20046;-60
2022/06/17 04:35:34;;;;;;;7.07;3.90;;;16.50;99.90;;;;;;4823470;29;20053;-59
2022/06/17 04:38:00;;;;;;;6.05;3.80;;;16.60;99.90;;;;;;4822953;29;20485;-59
2022/06/17 04:40:34;;;;;;;7.03;4.07;;;16.60;99.90;;;;;;4823197;29;20103;-60
2022/06/17 04:43:03;;;;;;;6.20;3.47;;;16.70;99.90;;;;;;4823021;29;20310;-61
2022/06/17 04:45:29;;;;;;;6.82;3.95;;;16.70;99.90;;;;;;4823151;29;20126;-61
2022/06/17 04:47:57;;;;;;;5.88;3.67;;;16.80;99.90;;;;;;4806854;29;20405;-60
2022/06/17 04:50:25;;;;;;;7.63;4.18;;;16.90;99.90;;;;;;4823272;29;20050;-61
2022/06/17 04:52:54;;;;;;;8.18;4.03;;;17.10;99.90;;;;;;4822967;29;20050;-62
2022/06/17 04:55:19;;;;;;;8.48;3.85;;;17.40;99.90;;;;;;4823198;29;20118;-61
2022/06/17 04:57:47;;;;;;;5.97;3.92;;;17.50;99.90;;;;;;4806436;29;20090;-60
2022/06/17 05:00:22;;;;;;;6.45;3.72;;;17.40;99.90;;;;;;4823126;29;20065;-60
2022/06/17 05:02:48;;;;;;;7.40;3.90;;;17.40;99.90;;;;;;4822771;29;20382;-60
2022/06/17 05:05:37;;;;;;;5.82;4.40;;;17.30;99.90;;;;;;4822852;29;20066;-60
2022/06/17 05:08:09;;;;;;;7.85;4.43;;;17.30;99.90;;;;;;4822804;29;20042;-61
2022/06/17 05:10:39;;;;;;;7.63;4.03;;;17.20;99.90;;;;;;4823008;29;20138;-61
2022/06/17 05:13:27;;;;;;;7.15;4.28;;;17.20;99.90;;;;;;4822360;29;20408;-61
2022/06/17 05:15:52;;;;;;;5.65;4.00;;;17.10;99.90;;;;;;4806092;29;20057;-62
2022/06/17 05:18:18;;;;;;;6.95;3.80;;;17.10;99.90;;;;;;4806247;29;20054;-61
2022/06/17 05:20:44;;;;;;;5.72;3.60;;;17.10;99.90;;;;;;4822915;29;20053;-67
2022/06/17 05:23:14;;;;;;;7.68;4.20;;;17.10;99.90;;;;;;4822609;29;20066;-62
2022/06/17 05:25:42;;;;;;;6.88;4.45;;;17.10;99.90;;;;;;4822558;29;20050;-60
2022/06/17 05:28:11;;;;;;;8.60;4.07;;;17.10;99.90;;;;;;4822209;29;20093;-60
2022/06/17 05:30:40;;;;;;;7.93;4.20;;;17.10;99.90;;;;;;4806187;29;20043;-60
2022/06/17 05:33:08;;;;;;;7.40;3.72;;;17.10;99.90;;;;;;4822150;29;20354;-61
2022/06/17 05:35:34;;;;;;;5.63;4.10;;;17.10;99.90;;;;;;4822464;29;20054;-60
2022/06/17 05:38:00;;;;;;;6.32;3.92;;;17.10;99.90;;;;;;4822003;29;20556;-61
2022/06/17 05:40:26;;;;;;;6.88;4.00;;;17.10;99.90;;;;;;4822586;29;20054;-62
2022/06/17 05:42:52;;;;;;;7.40;4.30;;;17.10;99.90;;;;;;4805737;29;20054;-61
2022/06/17 05:45:22;;;;;;;8.10;4.03;;;17.20;99.90;;;;;;4822495;29;20054;-61
2022/06/17 05:47:47;;;;;;;7.38;4.13;;;17.20;99.90;;;;;;4822303;29;20431;-67
2022/06/17 05:50:15;;;;;;;10.25;4.18;;;17.30;99.90;;;;;;4822249;29;20129;-61
2022/06/17 05:53:01;;;;;;;8.57;4.13;;;17.30;99.90;;;;;;4822340;29;20095;-61
2022/06/17 05:55:29;;;;;;;8.90;3.95;;;17.40;99.90;;;;;;4822177;29;20151;-61
2022/06/17 05:57:55;;;;;;;5.90;4.10;;;17.40;99.90;;;;;;4821669;29;20058;-61
2022/06/17 06:00:23;;;;;;;7.18;4.25;;;17.40;99.90;;;;;;4822065;29;20054;-60
2022/06/17 06:02:53;;;;;;;6.30;4.13;;;17.40;99.90;;;;;;4805724;29;20381;-67
2022/06/17 06:05:21;;;;;;;9.25;4.38;;;17.50;99.90;;;;;;4822137;29;20397;-62
2022/06/17 06:07:48;;;;;;;8.40;4.22;;;17.60;99.90;;;;;;4822215;29;20090;-61
2022/06/17 06:10:14;;;;;;;7.22;4.15;;;17.60;99.90;;;;;;4805390;29;20404;-61
2022/06/17 06:13:03;;;;;;;10.48;4.50;;;17.60;99.90;;;;;;4822060;29;20068;-62
2022/06/17 06:15:36;;;;;;;8.30;4.22;;;17.70;99.90;;;;;;4822253;29;20141;-60
2022/06/17 06:18:02;;;;;;;6.23;4.70;;;17.70;99.90;;;;;;4821802;29;20357;-60
2022/06/17 06:20:28;;;;;;;6.68;4.20;;;17.70;99.90;;;;;;4821926;29;20065;-60
2022/06/17 06:22:54;;;;;;;7.65;4.57;;;17.70;99.90;;;;;;4821480;29;20145;-63
2022/06/17 06:25:20;;;;;;;11.30;4.85;;;17.70;99.90;;;;;;4825569;29;20138;-61
2022/06/17 06:27:46;;;;;;;5.30;4.30;;;17.80;99.90;;;;;;4825569;29;20069;-61
2022/06/17 06:30:19;;;;;;;6.78;4.28;;;17.80;99.90;;;;;;4825013;29;20050;-61
2022/06/17 06:32:53;;;;;;;10.50;4.35;;;17.80;99.90;;;;;;4809671;29;20133;-62
2022/06/17 06:35:22;;;;;;;6.22;4.68;;;17.80;99.90;;;;;;4825205;29;20046;-62
2022/06/17 06:37:47;;;;;;;9.88;4.63;;;17.90;99.90;;;;;;4825346;29;20051;-61
2022/06/17 06:40:13;;;;;;;7.60;4.93;;;17.90;99.90;;;;;;4824731;29;20621;-60
2022/06/17 06:42:39;;;;;;;7.57;4.18;;;18.00;99.90;;;;;;4809188;29;20495;-60
2022/06/17 06:45:06;;;;;;;8.48;4.28;;;18.10;99.90;;;;;;4824660;29;20038;-60
2022/06/17 06:47:31;;;;;;;5.47;4.25;;;18.20;99.90;;;;;;4808873;29;20057;-60
2022/06/17 06:49:57;;;;;;;8.57;4.45;;;18.20;99.90;;;;;;4824546;29;20125;-61
2022/06/17 06:52:23;;;;;;;7.53;4.55;;;18.30;99.90;;;;;;4824934;29;20099;-60
2022/06/17 06:54:50;;;;;;;10.23;4.68;;;18.50;99.90;;;;;;4825155;29;20052;-61
2022/06/17 06:57:16;;;;;;;7.40;4.28;;;18.60;99.90;;;;;;4824646;29;20427;-61
2022/06/17 06:59:42;;;;;;;7.65;4.32;;;18.70;99.90;;;;;;4825080;29;20133;-61
2022/06/17 07:02:08;;;;;;;8.75;4.63;;;18.90;99.90;;;;;;4824482;29;20050;-62
2022/06/17 07:04:34;;;;;;;8.13;4.22;;;19.10;99.90;;;;;;4808735;29;20051;-61
2022/06/17 07:07:00;;;;;;;8.13;4.55;;;19.30;99.90;;;;;;4824713;29;20050;-60
2022/06/17 07:09:25;;;;;;;9.52;4.40;;;19.50;99.90;;;;;;4824772;29;20054;-61
2022/06/17 07:11:51;;;;;;;10.02;4.63;;;19.60;99.90;;;;;;4824688;29;20077;-61
2022/06/17 07:14:17;;;;;;;8.10;4.32;;;19.70;99.80;;;;;;4824180;29;20061;-60
2022/06/17 07:16:42;;;;;;;7.95;4.50;;;19.60;99.80;;;;;;4824565;29;20049;-60
2022/06/17 07:19:19;;;;;;;8.40;4.45;;;19.60;99.90;;;;;;4824226;29;20492;-60
2022/06/17 07:21:45;;;;;;;7.70;4.00;;;19.60;99.90;;;;;;4824496;29;20461;-61
2022/06/17 07:24:11;;;;;;;7.05;4.25;;;19.60;99.80;;;;;;4807691;29;20054;-61
2022/06/17 07:26:37;;;;;;;7.05;4.63;;;19.60;99.30;;;;;;4808124;29;20055;-61
2022/06/17 07:29:02;;;;;;;6.38;4.28;;;19.60;99.60;;;;;;4807897;29;20507;-61
2022/06/17 07:31:28;;;;;;;7.75;4.15;;;19.60;99.80;;;;;;4808369;29;20062;-61
2022/06/17 07:33:56;;;;;;;5.30;4.00;;;19.70;99.70;;;;;;4824029;29;20080;-61
2022/06/17 07:41:55;;;;;;;8.95;4.40;;;19.90;99.40;;;;;;4807812;29;20518;-61
2022/06/17 07:44:21;;;;;;;7.68;3.95;;;20.00;99.60;;;;;;4807255;29;20217;-61
2022/06/17 07:46:47;;;;;;;6.47;4.60;;;20.30;99.50;;;;;;4807755;29;20054;-63
2022/06/17 07:49:14;;;;;;;10.48;4.43;;;20.50;99.20;;;;;;4823932;29;20207;-65
2022/06/17 07:51:40;;;;;;;6.85;4.53;;;20.90;99.30;;;;;;4823901;29;20485;-61
2022/06/17 07:54:05;;;;;;;5.45;4.10;;;21.30;98.70;;;;;;4823747;29;20062;-62
2022/06/17 07:56:31;;;;;;;7.18;3.63;;;21.60;98.30;;;;;;4824112;29;20050;-61
2022/06/17 07:58:58;;;;;;;6.18;3.90;;;21.80;97.20;;;;;;4807771;29;20112;-61
2022/06/17 08:01:24;;;;;;;6.05;4.40;;;22.00;97.70;;;;;;4823784;29;20667;-60
2022/06/17 08:03:49;;;;;;;5.93;4.20;;;22.10;96.80;;;;;;4822782;29;20052;-60
2022/06/17 08:06:16;;;;;;;7.13;4.35;;;22.10;96.20;;;;;;4823729;29;20098;-62
2022/06/17 08:08:43;;;;;;;7.50;3.95;;;22.10;95.60;;;;;;4808096;29;20397;-63
2022/06/17 08:11:10;;;;;;;7.28;4.18;;;22.10;95.60;;;;;;4823592;29;20054;-61
2022/06/17 08:13:36;;;;;;;8.57;5.15;;;22.10;95.80;;;;;;4823999;29;20153;-62
2022/06/17 08:16:06;;;;;;;6.38;4.07;;;22.20;95.30;;;;;;4823955;29;20406;-61
2022/06/17 08:18:32;;;;;;;7.85;4.40;;;22.30;95.30;;;;;;4792629;29;20073;-63
2022/06/17 08:20:58;;;;;;;8.57;4.32;;;22.20;95.00;;;;;;4823800;29;20046;-62
2022/06/17 08:23:24;;;;;;;6.57;4.72;;;22.20;95.00;;;;;;4823399;29;20058;-62
2022/06/17 08:25:50;;;;;;;7.38;4.80;;;22.40;95.20;;;;;;4823726;29;20054;-64
2022/06/17 08:28:18;;;;;;;5.97;4.18;;;22.40;94.90;;;;;;4823041;29;20151;-62
2022/06/17 08:30:46;;;;;;;8.93;4.57;;;22.60;95.30;;;;;;4823879;29;20564;-62
2022/06/17 08:33:12;;;;;;;6.63;4.40;;;22.80;95.50;;;;;;4823465;29;20042;-62
2022/06/17 08:36:06;;;;;;;7.25;4.60;;;22.90;94.90;;;;;;4823516;29;20057;-65
2022/06/17 08:38:34;;;;;;;9.15;4.70;;;22.90;94.30;;;;;;4815471;29;20070;-61
2022/06/17 08:41:24;;;;;;;7.72;4.18;;;23.00;94.90;;;;;;4823744;29;20042;-62
2022/06/17 08:44:32;;;;;;;8.73;4.22;;;23.10;94.60;;;;;;4823473;29;20046;-62
2022/06/17 08:47:29;;;;;;;8.25;4.25;;;23.10;94.00;;;;;;4822679;29;20050;-63
2022/06/17 08:50:00;;;;;;;7.97;4.70;;;23.00;94.20;;;;;;4795940;29;20063;-62
2022/06/17 08:52:43;;;;;;;9.68;4.72;;;22.90;94.20;;;;;;4823246;29;20137;-61
2022/06/17 08:55:28;;;;;;;9.93;4.55;;;23.00;94.50;;;;;;4807066;29;20141;-61
2022/06/17 08:57:56;;;;;;;11.70;5.13;;;22.90;94.10;;;;;;4823247;29;20061;-62
2022/06/17 09:00:27;;;;;;;8.48;5.18;;;22.80;94.20;;;;;;4822710;29;20424;-61
2022/06/17 09:03:24;;;;;;;9.20;4.53;;;22.70;94.20;;;;;;4823428;29;20096;-60
2022/06/17 09:05:55;;;;;;;7.03;4.90;;;22.60;94.30;;;;;;4808467;29;20070;-62
2022/06/17 09:09:00;;;;;;;8.38;5.10;;;22.50;94.90;;;;;;4822665;29;20062;-62
2022/06/17 09:11:54;;;;;;;9.88;5.35;;;22.50;94.90;;;;;;4821724;29;20066;-61
2022/06/17 09:14:20;;;;;;;11.45;5.90;;;22.50;94.90;;;;;;4806621;29;20405;-61
2022/06/17 09:17:07;;;;;;;7.88;4.93;;;22.50;95.30;;;;;;4822976;29;20102;-65
2022/06/17 09:19:36;;;;;;;8.23;5.30;;;22.50;95.20;;;;;;4806359;29;20054;-62
2022/06/17 09:22:20;;;;;;;9.57;5.00;;;22.60;95.50;;;;;;4823176;29;20058;-62
2022/06/17 09:24:46;;;;;;;;;;;22.60;95.50;;;;;;4823692;29;20104;-61
2022/06/17 09:27:22;;;;;;;7.57;4.90;;;22.60;95.20;;;;;;4823205;29;19982;-61
2022/06/17 09:30:02;;;;;;;9.25;4.90;;;22.70;95.40;;;;;;4822910;29;20151;-62
2022/06/17 09:32:46;;;;;;;9.10;4.72;;;22.80;95.20;;;;;;4822362;29;20051;-62
2022/06/17 09:35:18;;;;;;;8.25;4.28;;;22.80;95.20;;;;;;4806649;29;20054;-61
2022/06/17 09:37:49;;;;;;;9.65;4.40;;;23.00;95.00;;;;;;4822915;29;20569;-61
2022/06/17 09:40:24;;;;;;;7.35;4.40;;;23.30;94.40;;;;;;4822577;29;20134;-65
2022/06/17 09:43:02;;;;;;;9.38;4.22;;;24.00;94.10;;;;;;4822903;29;20123;-62
2022/06/17 09:45:51;;;;;;;6.20;3.72;;;24.80;94.20;;;;;;4822297;29;20461;-64
2022/06/17 09:48:48;;;;;;;9.43;4.30;;;25.40;93.80;;;;;;4796731;29;20093;-63
2022/06/17 09:51:21;;;;;;;8.52;4.00;;;25.70;92.20;;;;;;4808144;29;20062;-61
2022/06/17 09:53:54;;;;;;;10.05;4.30;;;25.70;92.50;;;;;;4822718;29;20054;-63
2022/06/17 09:56:42;;;;;;;7.57;4.47;;;25.60;92.40;;;;;;4806172;29;20491;-62
2022/06/17 09:59:17;;;;;;;11.20;4.90;;;25.50;92.10;;;;;;4826130;29;20479;-63
2022/06/17 10:01:44;;;;;;;7.28;3.55;;;25.30;92.20;;;;;;4809793;29;20061;-63
2022/06/17 10:04:12;;;;;;;6.97;3.83;;;25.10;92.30;;;;;;4826041;29;20050;-68
2022/06/17 10:06:57;;;;;;;7.75;4.25;;;24.90;92.80;;;;;;4825799;29;20396;-64
2022/06/17 10:09:37;;;;;;;8.05;4.15;;;24.80;92.50;;;;;;4809867;29;20444;-61
2022/06/17 10:12:13;;;;;;;5.95;3.80;;;24.60;93.10;;;;;;4826104;29;20050;-61
2022/06/17 10:14:57;;;;;;;6.43;3.63;;;24.60;92.50;;;;;;4825547;29;20061;-61
2022/06/17 10:20:25;;;;;;;6.07;3.72;;;24.40;92.90;;;;;;4825845;29;20057;-67
2022/06/17 10:23:13;;;;;;;8.70;3.65;;;24.40;92.80;;;;;;4809472;29;20150;-64
2022/06/17 10:25:54;;;;;;;6.07;3.05;;;24.30;92.90;;;;;;4789363;29;20415;-61
2022/06/17 10:28:46;;;;;;;7.13;3.40;;;24.20;93.00;;;;;;4825731;29;20512;-62
2022/06/17 10:31:45;;;;;;;7.20;3.75;;;24.10;92.60;;;;;;4809555;29;20517;-62
2022/06/17 10:34:32;;;;;;;7.95;3.60;;;24.10;92.60;;;;;;4825740;29;20154;-62
2022/06/17 10:37:01;;;;;;;6.93;3.42;;;24.00;92.50;;;;;;4809841;29;20405;-62
2022/06/17 10:39:30;;;;;;;7.10;3.78;;;24.00;92.50;;;;;;4825151;29;20054;-62
2022/06/17 10:41:57;;;;;;;5.28;2.95;;;24.00;92.60;;;;;;4809643;29;20058;-62
2022/06/17 10:44:26;;;;;;;7.25;3.30;;;24.20;93.10;;;;;;4825616;29;20158;-62
2022/06/17 10:47:33;;;;;;;6.32;3.50;;;24.10;92.30;;;;;;4825488;29;20043;-63
2022/06/17 10:50:22;;;;;;;6.72;3.25;;;24.10;92.40;;;;;;4808861;29;20516;-62
2022/06/17 10:53:18;;;;;;;5.97;3.50;;;24.20;92.20;;;;;;4825257;29;20055;-63
2022/06/17 10:55:50;;;;;;;6.32;4.03;;;24.40;92.10;;;;;;4806809;29;20432;-62
2022/06/17 10:58:18;;;;;;;7.22;3.53;;;24.60;92.00;;;;;;4808704;29;20505;-60
2022/06/17 11:00:56;;;;;;;8.52;3.42;;;24.70;92.10;;;;;;4808879;29;20058;-60
2022/06/17 11:03:28;;;;;;;7.43;3.35;;;24.80;92.10;;;;;;4824720;29;20088;-60
2022/06/17 11:06:06;;;;;;;6.20;3.85;;;24.80;92.20;;;;;;4825048;29;20157;-61
2022/06/17 11:08:37;;;;;;;5.90;3.10;;;25.00;92.20;;;;;;4808456;29;20085;-61
2022/06/17 11:13:52;;;;;;;6.63;3.58;;;25.30;91.50;;;;;;4824490;29;20069;-61
2022/06/17 11:16:21;;;;;;;7.18;3.70;;;25.30;91.60;;;;;;4824814;29;20111;-62
2022/06/17 11:18:58;;;;;;;7.82;3.90;;;25.40;91.40;;;;;;4824521;29;20082;-61
2022/06/17 11:21:28;;;;;;;8.25;3.70;;;25.40;91.40;;;;;;4824937;29;20138;-61
2022/06/17 11:23:58;;;;;;;6.38;3.80;;;25.50;91.70;;;;;;4824254;29;20058;-61
2022/06/17 11:26:30;;;;;;;6.40;4.30;;;25.60;91.90;;;;;;4824766;29;20046;-60
2022/06/17 11:29:00;;;;;;;7.95;3.85;;;25.60;91.90;;;;;;4824958;29;20133;-59
2022/06/17 11:31:25;;;;;;;6.57;3.90;;;25.70;91.70;;;;;;4824391;29;20496;-60
2022/06/17 11:33:57;;;;;;;6.78;4.15;;;25.80;91.40;;;;;;4824307;29;20056;-60
2022/06/17 11:36:51;;;;;;;7.55;4.35;;;25.80;91.40;;;;;;4824444;29;20485;-60
2022/06/17 11:39:37;;;;;;;7.03;4.25;;;25.90;91.30;;;;;;4824528;29;20417;-64
2022/06/17 11:42:19;;;;;;;7.30;3.90;;;25.80;91.00;;;;;;4824677;29;20523;-63
2022/06/17 11:44:58;;;;;;;8.20;4.15;;;25.80;91.50;;;;;;4823905;29;20137;-62
2022/06/17 11:47:26;;;;;;;6.72;3.85;;;25.90;91.70;;;;;;4824433;29;20058;-62
2022/06/17 11:49:59;;;;;;;8.13;4.50;;;26.00;91.50;;;;;;4824372;29;20061;-62
2022/06/17 11:52:33;;;;;;;10.00;4.70;;;26.00;91.30;;;;;;4808293;29;20065;-62
2022/06/17 11:55:00;;;;;;;7.60;3.67;;;26.00;91.30;;;;;;4824030;29;20089;-63
2022/06/17 11:57:27;;;;;;;9.18;4.28;;;26.10;91.30;;;;;;4808086;29;20054;-62
2022/06/17 11:59:56;;;;;;;7.05;4.60;;;26.20;91.30;;;;;;4824119;29;20458;-63
2022/06/17 12:02:22;;;;;;;6.88;3.75;;;26.20;91.40;;;;;;4824162;29;20448;-62
2022/06/17 12:05:11;;;;;;;7.72;3.90;;;26.30;91.50;;;;;;4823886;29;20111;-62
2022/06/17 12:07:52;;;;;;;8.85;4.13;;;26.40;91.00;;;;;;4823783;29;20062;-62
2022/06/17 12:10:46;;;;;;;7.82;4.43;;;26.50;90.70;;;;;;4824152;29;20093;-62
2022/06/17 12:13:22;;;;;;;9.57;4.05;;;26.50;90.40;;;;;;4824096;29;20054;-65
2022/06/17 12:16:13;;;;;;;6.72;4.28;;;26.40;90.50;;;;;;4807615;29;20054;-62
2022/06/17 12:18:45;;;;;;;7.10;4.20;;;26.40;90.60;;;;;;4823632;29;20452;-64
2022/06/17 12:21:29;;;;;;;7.13;4.30;;;26.40;90.40;;;;;;4823081;29;20060;-61
2022/06/17 12:24:10;;;;;;;4.88;3.63;;;26.40;90.80;;;;;;4804070;29;20063;-65
2022/06/17 12:26:36;;;;;;;6.25;3.83;;;26.60;90.90;;;;;;4805854;29;20061;-62
2022/06/17 12:29:12;;;;;;;6.00;4.13;;;26.70;90.70;;;;;;4805294;29;20377;-62
2022/06/17 12:31:56;;;;;;;6.85;3.30;;;26.80;90.40;;;;;;4804489;29;20067;-63
2022/06/17 12:34:36;;;;;;;7.32;3.40;;;26.80;89.40;;;;;;4805737;29;20051;-62
2022/06/17 12:37:11;;;;;;;6.90;3.38;;;26.80;89.60;;;;;;4804316;29;20416;-63
2022/06/17 12:40:16;;;;;;;4.68;3.53;;;26.90;88.70;;;;;;4805600;29;20086;-61
2022/06/17 12:42:50;;;;;;;7.43;3.53;;;27.00;88.40;;;;;;4793626;29;20460;-63
2022/06/17 12:45:30;;;;;;;6.60;3.97;;;27.00;88.30;;;;;;4804106;29;20501;-63
2022/06/17 12:48:20;;;;;;;7.95;3.40;;;27.00;88.50;;;;;;4805087;29;20051;-64
2022/06/17 12:54:07;;;;;;;5.95;3.17;;;27.00;87.40;;;;;;4805100;29;20061;-63
2022/06/17 12:56:43;;;;;;;6.85;3.25;;;27.00;87.00;;;;;;4804766;29;20047;-63
2022/06/17 12:59:27;;;;;;;6.80;3.00;;;27.00;87.20;;;;;;4804778;29;20462;-63
2022/06/17 13:02:12;;;;;;;5.57;3.22;;;26.90;87.90;;;;;;4803695;29;20500;-61
2022/06/17 13:04:53;;;;;;;10.20;3.80;;;27.00;88.00;;;;;;4805000;29;20077;-66
2022/06/17 13:07:31;;;;;;;6.30;3.78;;;27.00;86.90;;;;;;4805022;29;20059;-61
2022/06/17 13:10:39;;;;;;;7.43;3.88;;;27.00;87.10;;;;;;4804101;29;20188;-62
2022/06/17 13:12:48;;;;;;;5.15;3.60;;;26.90;87.20;;;;;;4804490;29;20055;-69
2022/06/17 13:15:20;;;;;;;9.30;4.97;;;26.80;88.00;;;;;;4804889;29;20050;-60
2022/06/17 13:17:58;;;;;;;7.72;4.15;;;26.80;88.30;;;;;;4804452;29;20105;-68
2022/06/17 13:20:51;;;;;;;6.63;4.18;;;26.70;88.50;;;;;;4804941;29;20059;-60
2022/06/17 13:23:26;;;;;;;8.30;4.25;;;26.60;88.80;;;;;;4808210;29;20054;-62
2022/06/17 13:26:32;;;;;;;6.22;3.85;;;26.60;88.90;;;;;;4791438;29;20062;-62
2022/06/17 13:29:40;;;;;;;7.35;3.80;;;26.60;89.10;;;;;;4781737;29;20113;-61
2022/06/17 13:32:32;;;;;;;6.60;3.78;;;26.60;88.90;;;;;;4812349;29;20497;-61
2022/06/17 13:35:15;;;;;;;6.20;3.85;;;26.70;88.60;;;;;;4822410;29;20179;-61